sensor_id;sensor_type;location;lat;lon;timestamp;temperature;humidity
49184;DHT22;35021;49.214;12.270;2023-05-10T00:00:21;21.20;44.00
49184;DHT22;35021;49.214;12.270;2023-05-10T00:02:50;21.20;44.00
49184;DHT22;35021;49.214;12.270;2023-05-10T00:05:17;21.20;43.90
49184;DHT22;35021;49.214;12.270;2023-05-10T00:07:44;21.30;44.00
49184;DHT22;35021;49.214;12.270;2023-05-10T00:10:11;21.30;44.60
49184;DHT22;35021;49.214;12.270;2023-05-10T00:12:38;21.20;43.80
49184;DHT22;35021;49.214;12.270;2023-05-10T00:15:06;21.30;43.80
49184;DHT22;35021;49.214;12.270;2023-05-10T00:17:33;21.30;43.80
49184;DHT22;35021;49.214;12.270;2023-05-10T00:20:00;21.30;43.80
49184;DHT22;35021;49.214;12.270;2023-05-10T00:22:27;21.30;43.80
49184;DHT22;35021;49.214;12.270;2023-05-10T00:24:54;21.30;43.80
49184;DHT22;35021;49.214;12.270;2023-05-10T00:27:21;21.30;43.80
49184;DHT22;35021;49.214;12.270;2023-05-10T00:29:48;21.30;43.80
49184;DHT22;35021;49.214;12.270;2023-05-10T00:32:15;21.30;43.70
49184;DHT22;35021;49.214;12.270;2023-05-10T00:34:42;21.30;43.70
49184;DHT22;35021;49.214;12.270;2023-05-10T00:37:09;21.30;43.70
49184;DHT22;35021;49.214;12.270;2023-05-10T00:39:35;21.30;43.70
49184;DHT22;35021;49.214;12.270;2023-05-10T00:42:02;21.30;43.70
49184;DHT22;35021;49.214;12.270;2023-05-10T00:44:31;21.30;43.60
49184;DHT22;35021;49.214;12.270;2023-05-10T00:46:58;21.30;43.70
49184;DHT22;35021;49.214;12.270;2023-05-10T00:49:25;21.30;43.70
49184;DHT22;35021;49.214;12.270;2023-05-10T00:51:52;21.30;43.70
49184;DHT22;35021;49.214;12.270;2023-05-10T00:54:19;21.30;43.70
49184;DHT22;35021;49.214;12.270;2023-05-10T00:56:46;21.30;43.70
49184;DHT22;35021;49.214;12.270;2023-05-10T00:59:16;21.40;43.90
49184;DHT22;35021;49.214;12.270;2023-05-10T01:01:44;21.30;43.90
49184;DHT22;35021;49.214;12.270;2023-05-10T01:04:12;21.30;43.90
49184;DHT22;35021;49.214;12.270;2023-05-10T01:06:40;21.30;44.00
49184;DHT22;35021;49.214;12.270;2023-05-10T01:09:07;21.30;44.00
49184;DHT22;35021;49.214;12.270;2023-05-10T01:11:36;21.30;44.10
49184;DHT22;35021;49.214;12.270;2023-05-10T01:14:05;21.30;44.10
49184;DHT22;35021;49.214;12.270;2023-05-10T01:16:37;21.30;44.80
49184;DHT22;35021;49.214;12.270;2023-05-10T01:19:19;21.30;44.20
49184;DHT22;35021;49.214;12.270;2023-05-10T01:27:39;21.30;44.20
49184;DHT22;35021;49.214;12.270;2023-05-10T01:44:31;21.40;44.20
49184;DHT22;35021;49.214;12.270;2023-05-10T01:47:11;21.40;44.20
49184;DHT22;35021;49.214;12.270;2023-05-10T01:49:42;21.40;44.20
49184;DHT22;35021;49.214;12.270;2023-05-10T01:52:12;21.40;44.30
49184;DHT22;35021;49.214;12.270;2023-05-10T01:54:59;21.40;44.30
49184;DHT22;35021;49.214;12.270;2023-05-10T01:57:32;21.40;44.40
49184;DHT22;35021;49.214;12.270;2023-05-10T02:00:02;21.30;44.40
49184;DHT22;35021;49.214;12.270;2023-05-10T02:02:34;21.40;44.40
49184;DHT22;35021;49.214;12.270;2023-05-10T02:05:03;21.30;44.40
49184;DHT22;35021;49.214;12.270;2023-05-10T02:07:34;21.40;44.40
49184;DHT22;35021;49.214;12.270;2023-05-10T02:10:04;21.30;44.50
49184;DHT22;35021;49.214;12.270;2023-05-10T02:12:35;21.30;44.50
49184;DHT22;35021;49.214;12.270;2023-05-10T02:15:05;21.30;44.50
49184;DHT22;35021;49.214;12.270;2023-05-10T02:17:35;21.30;44.60
49184;DHT22;35021;49.214;12.270;2023-05-10T02:20:04;21.30;44.60
49184;DHT22;35021;49.214;12.270;2023-05-10T02:22:33;21.30;44.70
49184;DHT22;35021;49.214;12.270;2023-05-10T02:25:01;21.30;44.80
49184;DHT22;35021;49.214;12.270;2023-05-10T02:27:29;21.30;44.80
49184;DHT22;35021;49.214;12.270;2023-05-10T02:29:57;21.20;44.70
49184;DHT22;35021;49.214;12.270;2023-05-10T02:32:26;21.20;44.80
49184;DHT22;35021;49.214;12.270;2023-05-10T02:34:54;21.20;44.90
49184;DHT22;35021;49.214;12.270;2023-05-10T02:37:22;21.20;45.00
49184;DHT22;35021;49.214;12.270;2023-05-10T02:39:53;21.20;45.10
49184;DHT22;35021;49.214;12.270;2023-05-10T02:42:27;21.10;45.10
49184;DHT22;35021;49.214;12.270;2023-05-10T02:45:01;21.10;45.10
49184;DHT22;35021;49.214;12.270;2023-05-10T02:47:29;21.10;45.20
49184;DHT22;35021;49.214;12.270;2023-05-10T02:49:56;21.10;45.30
49184;DHT22;35021;49.214;12.270;2023-05-10T02:52:25;21.00;45.30
49184;DHT22;35021;49.214;12.270;2023-05-10T02:55:01;21.00;45.30
49184;DHT22;35021;49.214;12.270;2023-05-10T02:57:34;21.00;45.30
49184;DHT22;35021;49.214;12.270;2023-05-10T03:00:01;21.00;45.30
49184;DHT22;35021;49.214;12.270;2023-05-10T03:02:30;21.00;45.40
49184;DHT22;35021;49.214;12.270;2023-05-10T03:04:57;20.90;45.50
49184;DHT22;35021;49.214;12.270;2023-05-10T03:07:25;21.00;45.50
49184;DHT22;35021;49.214;12.270;2023-05-10T03:09:52;21.00;45.70
49184;DHT22;35021;49.214;12.270;2023-05-10T03:12:41;21.00;45.70
49184;DHT22;35021;49.214;12.270;2023-05-10T03:15:31;21.10;45.80
49184;DHT22;35021;49.214;12.270;2023-05-10T03:18:07;21.20;45.80
49184;DHT22;35021;49.214;12.270;2023-05-10T03:20:48;21.30;45.70
49184;DHT22;35021;49.214;12.270;2023-05-10T03:23:22;21.30;45.50
49184;DHT22;35021;49.214;12.270;2023-05-10T03:25:52;21.40;45.60
49184;DHT22;35021;49.214;12.270;2023-05-10T03:28:21;21.40;45.70
49184;DHT22;35021;49.214;12.270;2023-05-10T03:30:49;21.50;45.70
49184;DHT22;35021;49.214;12.270;2023-05-10T03:33:17;21.50;45.60
49184;DHT22;35021;49.214;12.270;2023-05-10T03:35:44;21.60;45.70
49184;DHT22;35021;49.214;12.270;2023-05-10T03:38:12;21.60;45.70
49184;DHT22;35021;49.214;12.270;2023-05-10T03:40:39;21.60;45.70
49184;DHT22;35021;49.214;12.270;2023-05-10T03:43:06;21.60;45.70
49184;DHT22;35021;49.214;12.270;2023-05-10T03:45:33;21.60;45.70
49184;DHT22;35021;49.214;12.270;2023-05-10T03:48:00;21.60;45.70
49184;DHT22;35021;49.214;12.270;2023-05-10T03:50:28;21.70;45.80
49184;DHT22;35021;49.214;12.270;2023-05-10T03:52:54;21.60;45.80
49184;DHT22;35021;49.214;12.270;2023-05-10T03:55:21;21.60;45.90
49184;DHT22;35021;49.214;12.270;2023-05-10T03:57:49;21.50;46.10
49184;DHT22;35021;49.214;12.270;2023-05-10T04:00:20;21.50;46.20
49184;DHT22;35021;49.214;12.270;2023-05-10T04:02:47;21.50;46.40
49184;DHT22;35021;49.214;12.270;2023-05-10T04:05:14;21.50;46.60
49184;DHT22;35021;49.214;12.270;2023-05-10T04:07:41;21.50;46.60
49184;DHT22;35021;49.214;12.270;2023-05-10T04:10:08;21.50;46.60
49184;DHT22;35021;49.214;12.270;2023-05-10T04:12:35;21.50;46.60
49184;DHT22;35021;49.214;12.270;2023-05-10T04:15:02;21.60;46.70
49184;DHT22;35021;49.214;12.270;2023-05-10T04:17:30;21.60;46.60
49184;DHT22;35021;49.214;12.270;2023-05-10T04:19:57;21.70;46.60
49184;DHT22;35021;49.214;12.270;2023-05-10T04:22:24;21.70;46.60
49184;DHT22;35021;49.214;12.270;2023-05-10T04:24:51;21.70;46.60
49184;DHT22;35021;49.214;12.270;2023-05-10T04:27:18;21.70;46.50
49184;DHT22;35021;49.214;12.270;2023-05-10T04:29:45;21.70;46.60
49184;DHT22;35021;49.214;12.270;2023-05-10T04:32:12;21.70;46.60
49184;DHT22;35021;49.214;12.270;2023-05-10T04:34:39;21.60;46.70
49184;DHT22;35021;49.214;12.270;2023-05-10T04:37:08;21.60;46.90
49184;DHT22;35021;49.214;12.270;2023-05-10T04:39:35;21.50;47.10
49184;DHT22;35021;49.214;12.270;2023-05-10T04:42:03;21.50;47.20
49184;DHT22;35021;49.214;12.270;2023-05-10T04:44:32;21.50;47.30
49184;DHT22;35021;49.214;12.270;2023-05-10T04:47:00;21.50;47.30
49184;DHT22;35021;49.214;12.270;2023-05-10T04:49:29;21.50;47.20
49184;DHT22;35021;49.214;12.270;2023-05-10T04:51:56;21.50;47.10
49184;DHT22;35021;49.214;12.270;2023-05-10T04:54:23;21.60;47.10
49184;DHT22;35021;49.214;12.270;2023-05-10T04:56:50;21.60;47.00
49184;DHT22;35021;49.214;12.270;2023-05-10T04:59:17;21.60;47.00
49184;DHT22;35021;49.214;12.270;2023-05-10T05:01:43;21.70;47.00
49184;DHT22;35021;49.214;12.270;2023-05-10T05:04:10;21.70;47.00
49184;DHT22;35021;49.214;12.270;2023-05-10T05:06:38;21.80;46.90
49184;DHT22;35021;49.214;12.270;2023-05-10T05:09:05;21.80;47.00
49184;DHT22;35021;49.214;12.270;2023-05-10T05:11:32;21.80;46.80
49184;DHT22;35021;49.214;12.270;2023-05-10T05:13:58;21.80;46.70
49184;DHT22;35021;49.214;12.270;2023-05-10T05:16:26;21.80;46.70
49184;DHT22;35021;49.214;12.270;2023-05-10T05:18:53;21.80;46.80
49184;DHT22;35021;49.214;12.270;2023-05-10T05:21:20;21.80;46.90
49184;DHT22;35021;49.214;12.270;2023-05-10T05:23:48;21.80;47.00
49184;DHT22;35021;49.214;12.270;2023-05-10T05:26:15;21.70;47.00
49184;DHT22;35021;49.214;12.270;2023-05-10T05:28:42;21.70;47.10
49184;DHT22;35021;49.214;12.270;2023-05-10T05:31:09;21.70;47.10
49184;DHT22;35021;49.214;12.270;2023-05-10T05:33:36;21.70;47.10
49184;DHT22;35021;49.214;12.270;2023-05-10T05:36:04;21.70;47.10
49184;DHT22;35021;49.214;12.270;2023-05-10T05:38:32;21.80;47.10
49184;DHT22;35021;49.214;12.270;2023-05-10T05:40:58;21.80;47.00
49184;DHT22;35021;49.214;12.270;2023-05-10T05:43:25;21.90;46.90
49184;DHT22;35021;49.214;12.270;2023-05-10T05:45:53;22.00;46.80
49184;DHT22;35021;49.214;12.270;2023-05-10T05:48:24;22.00;46.70
49184;DHT22;35021;49.214;12.270;2023-05-10T05:50:54;22.10;46.60
49184;DHT22;35021;49.214;12.270;2023-05-10T05:53:23;22.10;46.50
49184;DHT22;35021;49.214;12.270;2023-05-10T05:55:58;22.10;46.40
49184;DHT22;35021;49.214;12.270;2023-05-10T05:58:25;22.10;46.30
49184;DHT22;35021;49.214;12.270;2023-05-10T06:00:52;22.10;46.20
49184;DHT22;35021;49.214;12.270;2023-05-10T06:03:19;22.10;46.20
49184;DHT22;35021;49.214;12.270;2023-05-10T06:05:47;22.10;46.30
49184;DHT22;35021;49.214;12.270;2023-05-10T06:08:14;22.00;46.50
49184;DHT22;35021;49.214;12.270;2023-05-10T06:10:41;22.00;46.70
49184;DHT22;35021;49.214;12.270;2023-05-10T06:13:08;21.90;46.80
49184;DHT22;35021;49.214;12.270;2023-05-10T06:15:35;21.90;47.00
49184;DHT22;35021;49.214;12.270;2023-05-10T06:18:02;21.90;47.80
49184;DHT22;35021;49.214;12.270;2023-05-10T06:20:29;21.90;47.10
49184;DHT22;35021;49.214;12.270;2023-05-10T06:22:58;21.90;47.20
49184;DHT22;35021;49.214;12.270;2023-05-10T06:25:25;21.90;47.10
49184;DHT22;35021;49.214;12.270;2023-05-10T06:27:52;22.00;47.20
49184;DHT22;35021;49.214;12.270;2023-05-10T06:30:24;22.00;47.20
49184;DHT22;35021;49.214;12.270;2023-05-10T06:32:54;22.00;47.20
49184;DHT22;35021;49.214;12.270;2023-05-10T06:35:21;22.10;47.10
49184;DHT22;35021;49.214;12.270;2023-05-10T06:37:49;22.10;47.00
49184;DHT22;35021;49.214;12.270;2023-05-10T06:40:16;22.10;47.00
49184;DHT22;35021;49.214;12.270;2023-05-10T06:42:43;22.10;47.10
49184;DHT22;35021;49.214;12.270;2023-05-10T06:45:12;22.10;47.20
49184;DHT22;35021;49.214;12.270;2023-05-10T06:47:39;22.10;47.30
49184;DHT22;35021;49.214;12.270;2023-05-10T06:50:08;22.00;47.40
49184;DHT22;35021;49.214;12.270;2023-05-10T06:52:35;22.00;47.50
49184;DHT22;35021;49.214;12.270;2023-05-10T06:55:02;21.90;47.60
49184;DHT22;35021;49.214;12.270;2023-05-10T06:57:30;21.90;47.80
49184;DHT22;35021;49.214;12.270;2023-05-10T06:59:58;21.90;47.80
49184;DHT22;35021;49.214;12.270;2023-05-10T07:02:25;21.90;48.00
49184;DHT22;35021;49.214;12.270;2023-05-10T07:04:53;21.90;48.00
49184;DHT22;35021;49.214;12.270;2023-05-10T07:07:20;21.90;48.10
49184;DHT22;35021;49.214;12.270;2023-05-10T07:09:47;21.90;48.10
49184;DHT22;35021;49.214;12.270;2023-05-10T07:12:16;21.90;48.20
49184;DHT22;35021;49.214;12.270;2023-05-10T07:14:43;21.90;48.20
49184;DHT22;35021;49.214;12.270;2023-05-10T07:17:10;21.90;48.10
49184;DHT22;35021;49.214;12.270;2023-05-10T07:19:37;21.90;48.10
49184;DHT22;35021;49.214;12.270;2023-05-10T07:22:03;21.90;48.10
49184;DHT22;35021;49.214;12.270;2023-05-10T07:24:31;21.90;48.10
49184;DHT22;35021;49.214;12.270;2023-05-10T07:26:59;21.90;48.10
49184;DHT22;35021;49.214;12.270;2023-05-10T07:29:25;21.90;48.20
49184;DHT22;35021;49.214;12.270;2023-05-10T07:31:52;21.80;48.40
49184;DHT22;35021;49.214;12.270;2023-05-10T07:34:22;21.80;48.60
49184;DHT22;35021;49.214;12.270;2023-05-10T07:36:49;21.70;48.60
49184;DHT22;35021;49.214;12.270;2023-05-10T07:39:16;21.70;48.60
49184;DHT22;35021;49.214;12.270;2023-05-10T07:41:53;21.80;48.70
49184;DHT22;35021;49.214;12.270;2023-05-10T07:44:20;21.80;48.70
49184;DHT22;35021;49.214;12.270;2023-05-10T07:46:47;21.80;48.70
49184;DHT22;35021;49.214;12.270;2023-05-10T07:49:14;21.80;48.70
49184;DHT22;35021;49.214;12.270;2023-05-10T07:51:41;21.80;48.70
49184;DHT22;35021;49.214;12.270;2023-05-10T07:54:11;21.90;48.70
49184;DHT22;35021;49.214;12.270;2023-05-10T07:56:40;21.90;48.60
49184;DHT22;35021;49.214;12.270;2023-05-10T07:59:15;22.00;48.60
49184;DHT22;35021;49.214;12.270;2023-05-10T08:01:43;22.00;48.60
49184;DHT22;35021;49.214;12.270;2023-05-10T08:04:10;22.00;48.70
49184;DHT22;35021;49.214;12.270;2023-05-10T08:06:37;22.00;48.70
49184;DHT22;35021;49.214;12.270;2023-05-10T08:09:03;22.00;48.90
49184;DHT22;35021;49.214;12.270;2023-05-10T08:11:30;21.90;49.00
49184;DHT22;35021;49.214;12.270;2023-05-10T08:14:00;21.80;49.40
49184;DHT22;35021;49.214;12.270;2023-05-10T08:16:27;21.80;49.60
49184;DHT22;35021;49.214;12.270;2023-05-10T08:18:54;21.80;49.60
49184;DHT22;35021;49.214;12.270;2023-05-10T08:21:22;21.80;49.70
49184;DHT22;35021;49.214;12.270;2023-05-10T08:23:49;21.80;49.90
49184;DHT22;35021;49.214;12.270;2023-05-10T08:26:16;21.80;50.00
49184;DHT22;35021;49.214;12.270;2023-05-10T08:28:42;21.80;50.00
49184;DHT22;35021;49.214;12.270;2023-05-10T08:31:09;21.80;50.10
49184;DHT22;35021;49.214;12.270;2023-05-10T08:33:36;21.90;50.00
49184;DHT22;35021;49.214;12.270;2023-05-10T08:36:03;21.90;50.00
49184;DHT22;35021;49.214;12.270;2023-05-10T08:38:30;21.90;50.00
49184;DHT22;35021;49.214;12.270;2023-05-10T08:40:57;21.90;50.20
49184;DHT22;35021;49.214;12.270;2023-05-10T08:43:29;21.90;50.30
49184;DHT22;35021;49.214;12.270;2023-05-10T08:46:00;21.90;50.30
49184;DHT22;35021;49.214;12.270;2023-05-10T08:48:29;22.00;50.50
49184;DHT22;35021;49.214;12.270;2023-05-10T08:50:58;22.00;50.40
49184;DHT22;35021;49.214;12.270;2023-05-10T08:53:26;22.10;50.30
49184;DHT22;35021;49.214;12.270;2023-05-10T08:55:54;22.10;50.20
49184;DHT22;35021;49.214;12.270;2023-05-10T08:58:22;22.10;50.30
49184;DHT22;35021;49.214;12.270;2023-05-10T09:00:49;22.20;50.20
49184;DHT22;35021;49.214;12.270;2023-05-10T09:03:18;22.20;50.10
49184;DHT22;35021;49.214;12.270;2023-05-10T09:05:45;22.30;50.00
49184;DHT22;35021;49.214;12.270;2023-05-10T09:08:13;22.30;50.00
49184;DHT22;35021;49.214;12.270;2023-05-10T09:10:44;22.30;49.80
49184;DHT22;35021;49.214;12.270;2023-05-10T09:13:11;22.40;49.80
49184;DHT22;35021;49.214;12.270;2023-05-10T09:15:38;22.40;49.70
49184;DHT22;35021;49.214;12.270;2023-05-10T09:18:05;22.50;49.70
49184;DHT22;35021;49.214;12.270;2023-05-10T09:20:32;22.60;49.80
49184;DHT22;35021;49.214;12.270;2023-05-10T09:22:59;22.60;49.70
49184;DHT22;35021;49.214;12.270;2023-05-10T09:25:26;22.70;49.60
49184;DHT22;35021;49.214;12.270;2023-05-10T09:27:53;22.70;49.60
49184;DHT22;35021;49.214;12.270;2023-05-10T09:30:29;22.80;49.50
49184;DHT22;35021;49.214;12.270;2023-05-10T09:32:58;22.90;49.50
49184;DHT22;35021;49.214;12.270;2023-05-10T09:35:30;22.90;49.40
49184;DHT22;35021;49.214;12.270;2023-05-10T09:38:01;23.00;49.40
49184;DHT22;35021;49.214;12.270;2023-05-10T09:40:29;23.00;49.30
49184;DHT22;35021;49.214;12.270;2023-05-10T09:45:30;23.10;49.30
49184;DHT22;35021;49.214;12.270;2023-05-10T09:47:58;23.20;49.20
49184;DHT22;35021;49.214;12.270;2023-05-10T09:50:26;23.20;49.00
49184;DHT22;35021;49.214;12.270;2023-05-10T09:52:58;23.20;49.00
49184;DHT22;35021;49.214;12.270;2023-05-10T09:55:38;23.20;49.00
49184;DHT22;35021;49.214;12.270;2023-05-10T09:58:06;23.20;49.10
49184;DHT22;35021;49.214;12.270;2023-05-10T10:00:39;23.20;49.20
49184;DHT22;35021;49.214;12.270;2023-05-10T10:03:15;23.20;49.20
49184;DHT22;35021;49.214;12.270;2023-05-10T10:05:43;23.20;49.20
49184;DHT22;35021;49.214;12.270;2023-05-10T10:08:11;23.20;49.20
49184;DHT22;35021;49.214;12.270;2023-05-10T10:10:39;23.10;49.30
49184;DHT22;35021;49.214;12.270;2023-05-10T10:13:13;23.10;49.40
49184;DHT22;35021;49.214;12.270;2023-05-10T10:15:42;23.00;49.60
49184;DHT22;35021;49.214;12.270;2023-05-10T10:18:14;22.90;49.70
49184;DHT22;35021;49.214;12.270;2023-05-10T10:20:44;22.90;49.80
49184;DHT22;35021;49.214;12.270;2023-05-10T10:23:11;22.90;49.90
49184;DHT22;35021;49.214;12.270;2023-05-10T10:25:40;22.90;49.90
49184;DHT22;35021;49.214;12.270;2023-05-10T10:28:21;23.00;49.90
49184;DHT22;35021;49.214;12.270;2023-05-10T10:30:54;23.00;49.70
49184;DHT22;35021;49.214;12.270;2023-05-10T10:33:29;23.10;49.60
49184;DHT22;35021;49.214;12.270;2023-05-10T10:36:02;23.20;49.50
49184;DHT22;35021;49.214;12.270;2023-05-10T10:38:56;23.20;49.20
49184;DHT22;35021;49.214;12.270;2023-05-10T10:41:41;23.20;49.00
49184;DHT22;35021;49.214;12.270;2023-05-10T10:52:23;23.10;48.90
49184;DHT22;35021;49.214;12.270;2023-05-10T10:55:14;23.10;49.20
49184;DHT22;35021;49.214;12.270;2023-05-10T10:58:02;23.00;49.50
49184;DHT22;35021;49.214;12.270;2023-05-10T11:00:32;22.90;49.90
49184;DHT22;35021;49.214;12.270;2023-05-10T11:03:09;22.80;50.00
49184;DHT22;35021;49.214;12.270;2023-05-10T11:05:44;22.80;50.30
49184;DHT22;35021;49.214;12.270;2023-05-10T11:13:29;22.80;50.70
49184;DHT22;35021;49.214;12.270;2023-05-10T11:15:57;22.80;51.40
49184;DHT22;35021;49.214;12.270;2023-05-10T11:18:26;22.80;50.70
49184;DHT22;35021;49.214;12.270;2023-05-10T11:20:58;22.80;51.30
49184;DHT22;35021;49.214;12.270;2023-05-10T11:26:08;22.90;50.50
49184;DHT22;35021;49.214;12.270;2023-05-10T11:28:48;22.90;50.40
49184;DHT22;35021;49.214;12.270;2023-05-10T11:31:19;23.00;50.40
49184;DHT22;35021;49.214;12.270;2023-05-10T11:33:50;23.00;50.10
49184;DHT22;35021;49.214;12.270;2023-05-10T11:36:23;23.10;50.00
49184;DHT22;35021;49.214;12.270;2023-05-10T11:38:50;23.10;49.80
49184;DHT22;35021;49.214;12.270;2023-05-10T11:41:18;23.10;49.70
49184;DHT22;35021;49.214;12.270;2023-05-10T11:43:50;23.10;49.70
49184;DHT22;35021;49.214;12.270;2023-05-10T11:46:19;23.10;49.60
49184;DHT22;35021;49.214;12.270;2023-05-10T11:48:49;23.20;49.60
49184;DHT22;35021;49.214;12.270;2023-05-10T11:51:24;23.20;49.60
49184;DHT22;35021;49.214;12.270;2023-05-10T11:53:56;23.20;49.50
49184;DHT22;35021;49.214;12.270;2023-05-10T11:56:23;23.20;49.50
49184;DHT22;35021;49.214;12.270;2023-05-10T11:58:55;23.20;49.40
49184;DHT22;35021;49.214;12.270;2023-05-10T12:01:23;23.20;49.40
49184;DHT22;35021;49.214;12.270;2023-05-10T12:03:53;23.20;49.50
49184;DHT22;35021;49.214;12.270;2023-05-10T12:06:21;23.20;49.50
49184;DHT22;35021;49.214;12.270;2023-05-10T12:08:51;23.10;49.50
49184;DHT22;35021;49.214;12.270;2023-05-10T12:11:24;23.10;49.70
49184;DHT22;35021;49.214;12.270;2023-05-10T12:13:53;23.10;49.50
49184;DHT22;35021;49.214;12.270;2023-05-10T12:16:22;23.10;49.50
49184;DHT22;35021;49.214;12.270;2023-05-10T12:18:50;23.10;49.50
49184;DHT22;35021;49.214;12.270;2023-05-10T12:21:20;23.00;49.50
49184;DHT22;35021;49.214;12.270;2023-05-10T12:23:53;23.00;49.70
49184;DHT22;35021;49.214;12.270;2023-05-10T12:26:23;22.90;49.70
49184;DHT22;35021;49.214;12.270;2023-05-10T12:28:52;22.90;49.80
49184;DHT22;35021;49.214;12.270;2023-05-10T12:31:19;22.80;49.90
49184;DHT22;35021;49.214;12.270;2023-05-10T12:33:46;22.80;49.90
49184;DHT22;35021;49.214;12.270;2023-05-10T12:36:15;22.80;49.90
49184;DHT22;35021;49.214;12.270;2023-05-10T12:38:46;22.80;49.90
49184;DHT22;35021;49.214;12.270;2023-05-10T12:41:17;22.70;49.90
49184;DHT22;35021;49.214;12.270;2023-05-10T12:43:45;22.70;49.90
49184;DHT22;35021;49.214;12.270;2023-05-10T12:46:16;22.70;50.00
49184;DHT22;35021;49.214;12.270;2023-05-10T12:48:44;22.70;50.00
49184;DHT22;35021;49.214;12.270;2023-05-10T12:51:12;22.70;50.20
49184;DHT22;35021;49.214;12.270;2023-05-10T12:53:42;22.80;50.10
49184;DHT22;35021;49.214;12.270;2023-05-10T12:56:15;22.80;49.90
49184;DHT22;35021;49.214;12.270;2023-05-10T12:58:42;22.80;49.80
49184;DHT22;35021;49.214;12.270;2023-05-10T13:01:14;22.80;49.70
49184;DHT22;35021;49.214;12.270;2023-05-10T13:03:41;22.90;49.50
49184;DHT22;35021;49.214;12.270;2023-05-10T13:06:09;23.00;49.60
49184;DHT22;35021;49.214;12.270;2023-05-10T13:08:36;23.10;49.40
49184;DHT22;35021;49.214;12.270;2023-05-10T13:11:03;23.10;49.20
49184;DHT22;35021;49.214;12.270;2023-05-10T13:13:31;23.20;49.00
49184;DHT22;35021;49.214;12.270;2023-05-10T13:15:58;23.20;48.80
49184;DHT22;35021;49.214;12.270;2023-05-10T13:18:25;23.20;48.90
49184;DHT22;35021;49.214;12.270;2023-05-10T13:20:53;23.20;49.00
49184;DHT22;35021;49.214;12.270;2023-05-10T13:23:20;23.10;49.00
49184;DHT22;35021;49.214;12.270;2023-05-10T13:25:47;23.10;49.00
49184;DHT22;35021;49.214;12.270;2023-05-10T13:28:14;23.10;49.20
49184;DHT22;35021;49.214;12.270;2023-05-10T13:30:41;23.00;49.30
49184;DHT22;35021;49.214;12.270;2023-05-10T13:33:09;22.90;49.40
49184;DHT22;35021;49.214;12.270;2023-05-10T13:35:36;22.90;49.60
49184;DHT22;35021;49.214;12.270;2023-05-10T13:38:03;22.80;49.80
49184;DHT22;35021;49.214;12.270;2023-05-10T13:40:30;22.80;50.00
49184;DHT22;35021;49.214;12.270;2023-05-10T13:42:57;22.70;50.20
49184;DHT22;35021;49.214;12.270;2023-05-10T13:45:24;22.70;50.30
49184;DHT22;35021;49.214;12.270;2023-05-10T13:47:51;22.60;50.30
49184;DHT22;35021;49.214;12.270;2023-05-10T13:50:18;22.60;50.50
49184;DHT22;35021;49.214;12.270;2023-05-10T13:52:46;22.50;50.60
49184;DHT22;35021;49.214;12.270;2023-05-10T13:55:13;22.40;50.80
49184;DHT22;35021;49.214;12.270;2023-05-10T13:57:41;22.40;50.90
49184;DHT22;35021;49.214;12.270;2023-05-10T14:00:09;22.40;51.00
49184;DHT22;35021;49.214;12.270;2023-05-10T14:02:37;22.30;51.00
49184;DHT22;35021;49.214;12.270;2023-05-10T14:05:05;22.30;51.10
49184;DHT22;35021;49.214;12.270;2023-05-10T14:07:32;22.40;51.30
49184;DHT22;35021;49.214;12.270;2023-05-10T14:09:58;22.40;51.30
49184;DHT22;35021;49.214;12.270;2023-05-10T14:12:25;22.40;51.30
49184;DHT22;35021;49.214;12.270;2023-05-10T14:14:53;22.40;51.30
49184;DHT22;35021;49.214;12.270;2023-05-10T14:17:19;22.50;51.20
49184;DHT22;35021;49.214;12.270;2023-05-10T14:19:46;22.60;51.00
49184;DHT22;35021;49.214;12.270;2023-05-10T14:22:13;22.60;50.90
49184;DHT22;35021;49.214;12.270;2023-05-10T14:24:40;22.70;50.90
49184;DHT22;35021;49.214;12.270;2023-05-10T14:27:07;22.70;50.70
49184;DHT22;35021;49.214;12.270;2023-05-10T14:29:34;22.80;50.60
49184;DHT22;35021;49.214;12.270;2023-05-10T14:32:01;22.80;50.50
49184;DHT22;35021;49.214;12.270;2023-05-10T14:34:28;22.90;50.30
49184;DHT22;35021;49.214;12.270;2023-05-10T14:36:55;22.90;50.10
49184;DHT22;35021;49.214;12.270;2023-05-10T14:39:22;23.00;50.10
49184;DHT22;35021;49.214;12.270;2023-05-10T14:41:49;23.10;50.00
49184;DHT22;35021;49.214;12.270;2023-05-10T14:44:18;23.10;50.00
49184;DHT22;35021;49.214;12.270;2023-05-10T14:46:45;23.10;50.10
49184;DHT22;35021;49.214;12.270;2023-05-10T14:49:12;23.20;50.10
49184;DHT22;35021;49.214;12.270;2023-05-10T14:51:38;23.20;50.20
49184;DHT22;35021;49.214;12.270;2023-05-10T14:54:05;23.30;50.20
49184;DHT22;35021;49.214;12.270;2023-05-10T14:56:33;23.30;50.10
49184;DHT22;35021;49.214;12.270;2023-05-10T14:59:00;23.30;50.10
49184;DHT22;35021;49.214;12.270;2023-05-10T15:01:27;23.30;50.20
49184;DHT22;35021;49.214;12.270;2023-05-10T15:03:55;23.40;50.20
49184;DHT22;35021;49.214;12.270;2023-05-10T15:06:30;23.40;50.20
49184;DHT22;35021;49.214;12.270;2023-05-10T15:08:57;23.30;50.10
49184;DHT22;35021;49.214;12.270;2023-05-10T15:11:24;23.40;50.20
49184;DHT22;35021;49.214;12.270;2023-05-10T15:13:51;23.40;50.20
49184;DHT22;35021;49.214;12.270;2023-05-10T15:16:17;23.40;50.10
49184;DHT22;35021;49.214;12.270;2023-05-10T15:18:44;23.40;50.10
49184;DHT22;35021;49.214;12.270;2023-05-10T15:21:12;23.30;50.20
49184;DHT22;35021;49.214;12.270;2023-05-10T15:23:39;23.30;50.20
49184;DHT22;35021;49.214;12.270;2023-05-10T15:26:06;23.30;50.20
49184;DHT22;35021;49.214;12.270;2023-05-10T15:28:34;23.20;51.00
49184;DHT22;35021;49.214;12.270;2023-05-10T15:31:01;23.20;51.10
49184;DHT22;35021;49.214;12.270;2023-05-10T15:33:28;23.10;50.50
49184;DHT22;35021;49.214;12.270;2023-05-10T15:35:55;23.10;50.60
49184;DHT22;35021;49.214;12.270;2023-05-10T15:38:22;23.00;50.70
49184;DHT22;35021;49.214;12.270;2023-05-10T15:40:49;22.90;50.90
49184;DHT22;35021;49.214;12.270;2023-05-10T15:43:16;22.90;51.10
49184;DHT22;35021;49.214;12.270;2023-05-10T15:45:43;22.80;51.20
49184;DHT22;35021;49.214;12.270;2023-05-10T15:48:10;22.80;51.40
49184;DHT22;35021;49.214;12.270;2023-05-10T15:50:38;22.70;51.40
49184;DHT22;35021;49.214;12.270;2023-05-10T15:53:06;22.70;51.60
49184;DHT22;35021;49.214;12.270;2023-05-10T15:55:33;22.70;51.70
49184;DHT22;35021;49.214;12.270;2023-05-10T15:58:01;22.70;51.70
49184;DHT22;35021;49.214;12.270;2023-05-10T16:00:28;22.70;51.80
49184;DHT22;35021;49.214;12.270;2023-05-10T16:02:56;22.60;51.90